Tropical Cyclones
[Index]
Main Index Home Page Stock Weather Photos Extreme Storms Discussion Storm News and Storm Chasing Reports Tropical Cyclones / Hurricanes / Typhoons Weather Data and Links Wild Fires / Bushfires Weather Observation Techniques Weather Picture Catalogue Tornado Pictures and Reports Stock Video Footage and DVDs for sale
Season 1997-1998 Tropical Cyclone NATHAN Track Map
Season 1997-1998 Summaries (Operational Data): [AU] [SIO] [SPAC] [SH]
<<- Previous TC | 1997-1998 Season | Next TC ->>

click for intensity scale information  Lat/long Grid: Show Hide

 Date Labels: Show Hide

Operational Tropical Cyclone Data : JTWC Advisories

Name: NATHAN
Number: 9830

21 Mar 1998 00:00 UTC to 31 Mar 1998 00:00 UTC

    date/time    lat    long     hPa   cat  kts
1998-03-21 00   11.3   143.5     995    1    40          
1998-03-21 06   11.4   144.0     990    2    50          
1998-03-21 12   11.9   144.3     990    2    50          
1998-03-21 18   12.0   144.7     990    2    50          
1998-03-22 00   11.2   144.7     990    2    50          
1998-03-22 06   11.4   144.9     990    2    50          
1998-03-22 12   11.6   144.9     995    1    45          
1998-03-22 18   12.1   145.3     995    1    45          
1998-03-23 00   13.2   145.5     995    1    45          
1998-03-23 06   13.8   145.8     995    1    45          
1998-03-23 12   14.2   146.1     995    1    45          
1998-03-23 18   14.2   146.4     995    1    45          
1998-03-24 00   14.0   147.2     990    2    50          
1998-03-24 06   13.7   147.9     990    2    50          
1998-03-24 12   13.5   148.6     990    2    50          
1998-03-24 18   13.4   149.7     990    2    50          
1998-03-25 00   13.0   151.6     990    2    50          
1998-03-25 06   12.9   153.4     995    1    45          
1998-03-25 12   12.7   155.0     995    1    45          
1998-03-25 18   13.0   156.0     995    1    45          
1998-03-26 00   13.1   157.1     995    1    45          
1998-03-26 06   13.5   157.5     995    1    45          
1998-03-26 12   14.2   158.2     995    1    45          
1998-03-26 18   14.6   158.4     995    1    45          
1998-03-27 00   14.8   158.7                 30          
1998-03-27 12   15.8   158.8            1    45          
1998-03-28 00   16.1   158.0            1    40          
1998-03-28 12   16.6   156.8            1    40          
1998-03-29 00   16.1   155.0            1    40          
1998-03-29 06   15.9   154.1            1    40          
1998-03-29 12   15.4   152.9            1    40          
1998-03-29 18   15.0   151.9            1    35          
1998-03-30 00   15.1   151.4            1    35          
1998-03-30 06   15.1   150.1            1    35          
1998-03-30 12   15.1   148.8            1    35          
1998-03-30 18   14.8   147.3            1    35          
1998-03-31 00   13.5   144.9                 30          
Winds are 10-min average.

Tropical cyclone tracks developed by Michael Bath using operational warnings and advisories and Google Maps.


[Australian Severe Weather index] [Copyright Notice] [Email Contacts] [Search This Site] [Privacy Policy]
Document: tropical_cyclone_nathan.htm Updated: 4 September 2016